PWSweather.com
Personal Weather Stations
Station Observations
728536
Kristiansand, FlekkeroyNO 4625

KristiansandFlekkeroyNO 4625

Lat: 58.0860587, Lon: 8.0151742

Elevation: 36

Station Type: Davis Vantage Pro2

http://www.paulen.no

Latest ConditionsUpdated 2:50:01 PM GMT+01:01 Sunday, Jun 25, 2017
Currently Today's Max Today's Min Today's Average
Temperature 58.0°F14.4°C 59.4°F15.2°C 51.4°F10.8°C 54.9°F12.7°C
Dew Point 50.8°F10.4°C 51.9°F11.1°C 47.1°F8.4°C 49.9°F9.9°C
Winds 8.1 mph WSW13.0 kmh WSW 9.2 mph SW14.8 kmh SW - 4.1 mph 6.6 kmh
Wind Gusts 11.5 mph18.5 kmh 21.9 mph35.2 kmh - -
Humidity 77% 94% 65% 84%
Pressure 29.43 in996.6 mb 29.52 in999.7 mb 29.42 in996.3 mb -
Precipitation - 0.05 in1.3 mm - -
Hour Temp Dew Point Humidity Winds Wind Gusts Pressure Precip Precip Rate Daily Precip Total
02:50 PM 58.0°F14.4°C 50.8°F10.4°C 77% 8.1 mph WSW13.0 kmh WSW 11.5 mph18.5 kmh 29.43 in996.6 mb - 0.00 in0.0 mm 0.05 in1.3 mm
02:40 PM 57.7°F14.3°C 50.9°F10.5°C 78% 5.8 mph SW9.3 kmh SW 11.5 mph18.5 kmh 29.43 in996.6 mb - 0.00 in0.0 mm 0.05 in1.3 mm
02:30 PM 57.2°F14.0°C 51.5°F10.8°C 81% 8.1 mph SW13.0 kmh SW 16.1 mph25.9 kmh 29.43 in996.6 mb - 0.00 in0.0 mm 0.05 in1.3 mm
02:20 PM 56.3°F13.5°C 51.2°F10.7°C 83% 2.3 mph N3.7 kmh N 11.5 mph18.5 kmh 29.43 in996.6 mb - 0.00 in0.0 mm 0.05 in1.3 mm
02:10 PM 55.9°F13.3°C 51.1°F10.6°C 84% 5.8 mph SSW9.3 kmh SSW 13.8 mph22.2 kmh 29.43 in996.6 mb - 0.00 in0.0 mm 0.05 in1.3 mm
02:00 PM 55.5°F13.1°C 51.7°F10.9°C 87% 4.6 mph SE7.4 kmh SE 10.4 mph16.7 kmh 29.43 in996.6 mb - 0.00 in0.0 mm 0.05 in1.3 mm
01:50 PM 56.7°F13.7°C 51.6°F10.9°C 83% 5.8 mph SW9.3 kmh SW 10.4 mph16.7 kmh 29.44 in997.0 mb - 0.01 in0.3 mm 0.05 in1.3 mm
01:40 PM 57.5°F14.2°C 50.7°F10.4°C 78% 5.8 mph E9.3 kmh E 11.5 mph18.5 kmh 29.43 in996.6 mb - 0.00 in0.0 mm 0.04 in1.0 mm
01:30 PM 57.5°F14.2°C 51.1°F10.6°C 79% 8.1 mph SW13.0 kmh SW 12.7 mph20.4 kmh 29.43 in996.6 mb - 0.00 in0.0 mm 0.04 in1.0 mm
01:20 PM 58.6°F14.8°C 50.0°F10.0°C 73% 4.6 mph SE7.4 kmh SE 10.4 mph16.7 kmh 29.43 in996.6 mb - 0.00 in0.0 mm 0.04 in1.0 mm
01:10 PM 58.5°F14.7°C 49.9°F9.9°C 73% 5.8 mph SW9.3 kmh SW 12.7 mph20.4 kmh 29.43 in996.6 mb - 0.00 in0.0 mm 0.04 in1.0 mm
01:00 PM 58.7°F14.8°C 49.7°F9.8°C 72% 5.8 mph SW9.3 kmh SW 11.5 mph18.5 kmh 29.43 in996.6 mb - 0.00 in0.0 mm 0.04 in1.0 mm
12:50 PM 59.4°F15.2°C 49.6°F9.8°C 70% 5.8 mph S9.3 kmh S 10.4 mph16.7 kmh 29.43 in996.6 mb - 0.00 in0.0 mm 0.04 in1.0 mm
12:40 PM 59.4°F15.2°C 49.7°F9.8°C 70% 9.2 mph SSW14.8 kmh SSW 15.0 mph24.1 kmh 29.43 in996.6 mb - 0.00 in0.0 mm 0.04 in1.0 mm
12:30 PM 59.1°F15.1°C 50.1°F10.1°C 72% 8.1 mph WSW13.0 kmh WSW 21.9 mph35.2 kmh 29.43 in996.6 mb - 0.00 in0.0 mm 0.04 in1.0 mm
12:20 PM 58.4°F14.7°C 50.2°F10.1°C 74% 8.1 mph SW13.0 kmh SW 15.0 mph24.1 kmh 29.43 in996.6 mb - 0.00 in0.0 mm 0.04 in1.0 mm
12:10 PM 57.6°F14.2°C 50.1°F10.1°C 76% 8.1 mph SW13.0 kmh SW 21.9 mph35.2 kmh 29.43 in996.6 mb - 0.00 in0.0 mm 0.04 in1.0 mm
12:00 PM 58.1°F14.5°C 50.2°F10.1°C 75% 8.1 mph SW13.0 kmh SW 16.1 mph25.9 kmh 29.43 in996.6 mb - 0.00 in0.0 mm 0.04 in1.0 mm
11:50 AM 57.3°F14.1°C 49.4°F9.7°C 75% 4.6 mph S7.4 kmh S 8.1 mph13.0 kmh 29.43 in996.6 mb - 0.00 in0.0 mm 0.04 in1.0 mm
11:40 AM 56.4°F13.6°C 50.0°F10.0°C 79% 5.8 mph S9.3 kmh S 8.1 mph13.0 kmh 29.43 in996.6 mb - 0.00 in0.0 mm 0.04 in1.0 mm
11:30 AM 57.9°F14.4°C 49.3°F9.6°C 73% 9.2 mph SW14.8 kmh SW 15.0 mph24.1 kmh 29.44 in997.0 mb - 0.00 in0.0 mm 0.04 in1.0 mm
11:20 AM 58.2°F14.6°C 49.3°F9.6°C 72% 4.6 mph S7.4 kmh S 13.8 mph22.2 kmh 29.43 in996.6 mb - 0.00 in0.0 mm 0.04 in1.0 mm
11:10 AM 57.8°F14.3°C 48.8°F9.3°C 72% 6.9 mph SW11.1 kmh SW 13.8 mph22.2 kmh 29.43 in996.6 mb - 0.00 in0.0 mm 0.04 in1.0 mm
11:00 AM 57.5°F14.2°C 48.2°F9.0°C 71% 6.9 mph S11.1 kmh S 16.1 mph25.9 kmh 29.43 in996.6 mb - 0.00 in0.0 mm 0.04 in1.0 mm
10:50 AM 58.6°F14.8°C 48.5°F9.2°C 69% 4.6 mph SE7.4 kmh SE 12.7 mph20.4 kmh 29.43 in996.6 mb - 0.00 in0.0 mm 0.04 in1.0 mm
10:40 AM 58.2°F14.6°C 47.3°F8.5°C 67% 4.6 mph W7.4 kmh W 11.5 mph18.5 kmh 29.43 in996.6 mb - 0.00 in0.0 mm 0.04 in1.0 mm
10:30 AM 58.9°F14.9°C 47.2°F8.4°C 65% 5.8 mph N9.3 kmh N 11.5 mph18.5 kmh 29.43 in996.6 mb - 0.00 in0.0 mm 0.04 in1.0 mm
10:20 AM 58.8°F14.9°C 47.9°F8.8°C 67% 5.8 mph SW9.3 kmh SW 8.1 mph13.0 kmh 29.42 in996.3 mb - 0.00 in0.0 mm 0.04 in1.0 mm
10:10 AM 58.8°F14.9°C 47.1°F8.4°C 65% 4.6 mph SW7.4 kmh SW 11.5 mph18.5 kmh 29.43 in996.6 mb - 0.00 in0.0 mm 0.04 in1.0 mm
10:00 AM 58.9°F14.9°C 49.1°F9.5°C 70% 5.8 mph SSW9.3 kmh SSW 11.5 mph18.5 kmh 29.42 in996.3 mb - 0.00 in0.0 mm 0.04 in1.0 mm
09:50 AM 57.9°F14.4°C 48.2°F9.0°C 70% 6.9 mph WSW11.1 kmh WSW 9.2 mph14.8 kmh 29.42 in996.3 mb - 0.00 in0.0 mm 0.04 in1.0 mm
09:40 AM 57.2°F14.0°C 49.7°F9.8°C 76% 4.6 mph WSW7.4 kmh WSW 21.9 mph35.2 kmh 29.42 in996.3 mb - 0.00 in0.0 mm 0.04 in1.0 mm
09:30 AM 56.9°F13.8°C 49.7°F9.8°C 77% 8.1 mph SW13.0 kmh SW 11.5 mph18.5 kmh 29.43 in996.6 mb - 0.00 in0.0 mm 0.04 in1.0 mm
09:20 AM 57.4°F14.1°C 51.0°F10.6°C 79% 4.6 mph SSW7.4 kmh SSW 8.1 mph13.0 kmh 29.43 in996.6 mb - 0.01 in0.3 mm 0.04 in1.0 mm
09:10 AM 57.3°F14.1°C 51.2°F10.7°C 80% 5.8 mph SW9.3 kmh SW 11.5 mph18.5 kmh 29.43 in996.6 mb - 0.00 in0.0 mm 0.03 in0.8 mm
09:00 AM 55.7°F13.2°C 51.9°F11.1°C 87% 4.6 mph SW7.4 kmh SW 8.1 mph13.0 kmh 29.43 in996.6 mb - 0.00 in0.0 mm 0.03 in0.8 mm
08:50 AM 53.5°F11.9°C 51.2°F10.7°C 92% 6.9 mph SW11.1 kmh SW 11.5 mph18.5 kmh 29.42 in996.3 mb - 0.00 in0.0 mm 0.03 in0.8 mm
08:40 AM 53.3°F11.8°C 50.1°F10.1°C 89% 6.9 mph SW11.1 kmh SW 10.4 mph16.7 kmh 29.43 in996.6 mb - 0.00 in0.0 mm 0.03 in0.8 mm
08:30 AM 52.8°F11.6°C 49.9°F9.9°C 90% 1.2 mph SW1.9 kmh SW 2.3 mph3.7 kmh 29.43 in996.6 mb - 0.00 in0.0 mm 0.03 in0.8 mm
08:20 AM 52.9°F11.6°C 49.5°F9.7°C 88% 2.3 mph SW3.7 kmh SW 3.5 mph5.6 kmh 29.43 in996.6 mb - 0.00 in0.0 mm 0.03 in0.8 mm
08:10 AM 54.0°F12.2°C 49.9°F9.9°C 86% 3.5 mph SW5.6 kmh SW 10.4 mph16.7 kmh 29.43 in996.6 mb - 0.00 in0.0 mm 0.03 in0.8 mm
08:00 AM 54.8°F12.7°C 50.4°F10.2°C 85% 2.3 mph SW3.7 kmh SW 5.8 mph9.3 kmh 29.43 in996.6 mb - 0.00 in0.0 mm 0.03 in0.8 mm
07:50 AM 53.6°F12.0°C 49.5°F9.7°C 86% 5.8 mph SW9.3 kmh SW 11.5 mph18.5 kmh 29.43 in996.6 mb - 0.00 in0.0 mm 0.03 in0.8 mm
07:40 AM 53.4°F11.9°C 49.3°F9.6°C 86% 3.5 mph SW5.6 kmh SW 4.6 mph7.4 kmh 29.44 in997.0 mb - 0.00 in0.0 mm 0.03 in0.8 mm
07:30 AM 52.9°F11.6°C 49.5°F9.7°C 88% 1.2 mph SW1.9 kmh SW 2.3 mph3.7 kmh 29.44 in997.0 mb - 0.00 in0.0 mm 0.03 in0.8 mm
07:20 AM 53.1°F11.7°C 49.0°F9.4°C 86% 3.5 mph NW5.6 kmh NW 6.9 mph11.1 kmh 29.44 in997.0 mb - 0.00 in0.0 mm 0.03 in0.8 mm
07:10 AM 54.0°F12.2°C 50.0°F10.0°C 86% 2.3 mph W3.7 kmh W 2.3 mph3.7 kmh 29.44 in997.0 mb - 0.00 in0.0 mm 0.03 in0.8 mm
07:00 AM 53.8°F12.1°C 50.6°F10.3°C 89% 3.5 mph W5.6 kmh W 9.2 mph14.8 kmh 29.44 in997.0 mb - 0.00 in0.0 mm 0.03 in0.8 mm
06:50 AM 52.7°F11.5°C 48.9°F9.4°C 87% 1.2 mph N1.9 kmh N 2.3 mph3.7 kmh 29.43 in996.6 mb - 0.00 in0.0 mm 0.03 in0.8 mm
06:40 AM 53.4°F11.9°C 49.0°F9.4°C 85% 4.6 mph SW7.4 kmh SW 8.1 mph13.0 kmh 29.44 in997.0 mb - 0.00 in0.0 mm 0.03 in0.8 mm
06:30 AM 53.5°F11.9°C 49.1°F9.5°C 85% 2.3 mph S3.7 kmh S 4.6 mph7.4 kmh 29.43 in996.6 mb - 0.00 in0.0 mm 0.03 in0.8 mm
06:20 AM 53.6°F12.0°C 49.8°F9.9°C 87% 3.5 mph SW5.6 kmh SW 9.2 mph14.8 kmh 29.44 in997.0 mb - 0.01 in0.3 mm 0.03 in0.8 mm
06:10 AM 53.5°F11.9°C 50.0°F10.0°C 88% 1.2 mph S1.9 kmh S 3.5 mph5.6 kmh 29.44 in997.0 mb - 0.00 in0.0 mm 0.02 in0.5 mm
06:00 AM 54.2°F12.3°C 51.0°F10.6°C 89% 2.3 mph S3.7 kmh S 5.8 mph9.3 kmh 29.43 in996.6 mb - 0.00 in0.0 mm 0.02 in0.5 mm
05:50 AM 53.7°F12.1°C 51.4°F10.8°C 92% 3.5 mph SSW5.6 kmh SSW 5.8 mph9.3 kmh 29.44 in997.0 mb - 0.00 in0.0 mm 0.02 in0.5 mm
05:40 AM 53.0°F11.7°C 50.1°F10.1°C 90% Calm Calm 1.2 mph1.9 kmh 29.44 in997.0 mb - 0.00 in0.0 mm 0.02 in0.5 mm
05:30 AM 52.8°F11.6°C 49.6°F9.8°C 89% 1.2 mph WSW1.9 kmh WSW 2.3 mph3.7 kmh 29.44 in997.0 mb - 0.00 in0.0 mm 0.02 in0.5 mm
05:20 AM 52.7°F11.5°C 49.2°F9.6°C 88% 2.3 mph SW3.7 kmh SW 3.5 mph5.6 kmh 29.44 in997.0 mb - 0.00 in0.0 mm 0.02 in0.5 mm
05:10 AM 52.3°F11.3°C 48.9°F9.4°C 88% 3.5 mph WSW5.6 kmh WSW 5.8 mph9.3 kmh 29.44 in997.0 mb - 0.00 in0.0 mm 0.02 in0.5 mm
05:00 AM 51.9°F11.1°C 48.8°F9.3°C 89% 1.2 mph SW1.9 kmh SW 3.5 mph5.6 kmh 29.44 in997.0 mb - 0.00 in0.0 mm 0.02 in0.5 mm
04:50 AM 51.6°F10.9°C 48.5°F9.2°C 89% Calm Calm 4.6 mph7.4 kmh 29.44 in997.0 mb - 0.00 in0.0 mm 0.02 in0.5 mm
04:40 AM 51.4°F10.8°C 48.3°F9.1°C 89% Calm Calm 2.3 mph3.7 kmh 29.45 in997.3 mb - 0.00 in0.0 mm 0.02 in0.5 mm
04:30 AM 51.4°F10.8°C 48.6°F9.2°C 90% Calm Calm 2.3 mph3.7 kmh 29.45 in997.3 mb - 0.00 in0.0 mm 0.02 in0.5 mm
04:20 AM 51.4°F10.8°C 48.6°F9.2°C 90% 3.5 mph S5.6 kmh S 9.2 mph14.8 kmh 29.45 in997.3 mb - 0.00 in0.0 mm 0.02 in0.5 mm
04:10 AM 51.7°F10.9°C 48.9°F9.4°C 90% 2.3 mph W3.7 kmh W 5.8 mph9.3 kmh 29.45 in997.3 mb - 0.00 in0.0 mm 0.02 in0.5 mm
04:00 AM 52.3°F11.3°C 49.5°F9.7°C 90% 1.2 mph W1.9 kmh W 4.6 mph7.4 kmh 29.45 in997.3 mb - 0.00 in0.0 mm 0.02 in0.5 mm
03:50 AM 53.4°F11.9°C 50.2°F10.1°C 89% 5.8 mph W9.3 kmh W 10.4 mph16.7 kmh 29.45 in997.3 mb - 0.00 in0.0 mm 0.02 in0.5 mm
03:40 AM 53.6°F12.0°C 51.0°F10.6°C 91% 3.5 mph WSW5.6 kmh WSW 4.6 mph7.4 kmh 29.45 in997.3 mb - 0.00 in0.0 mm 0.02 in0.5 mm
03:30 AM 53.4°F11.9°C 51.1°F10.6°C 92% 4.6 mph SW7.4 kmh SW 9.2 mph14.8 kmh 29.45 in997.3 mb - 0.00 in0.0 mm 0.02 in0.5 mm
03:20 AM 53.3°F11.8°C 51.0°F10.6°C 92% 4.6 mph SW7.4 kmh SW 9.2 mph14.8 kmh 29.45 in997.3 mb - 0.00 in0.0 mm 0.02 in0.5 mm
03:10 AM 53.1°F11.7°C 50.9°F10.5°C 92% 4.6 mph SW7.4 kmh SW 6.9 mph11.1 kmh 29.46 in997.6 mb - 0.00 in0.0 mm 0.02 in0.5 mm
03:00 AM 53.0°F11.7°C 50.7°F10.4°C 92% 3.5 mph SW5.6 kmh SW 8.1 mph13.0 kmh 29.46 in997.6 mb - 0.00 in0.0 mm 0.02 in0.5 mm
02:50 AM 53.0°F11.7°C 50.7°F10.4°C 92% 4.6 mph SW7.4 kmh SW 8.1 mph13.0 kmh 29.46 in997.6 mb - 0.00 in0.0 mm 0.02 in0.5 mm
02:40 AM 52.7°F11.5°C 50.7°F10.4°C 93% 5.8 mph SSW9.3 kmh SSW 5.8 mph9.3 kmh 29.46 in997.6 mb - 0.00 in0.0 mm 0.02 in0.5 mm
02:30 AM 52.5°F11.4°C 50.5°F10.3°C 93% 2.3 mph SW3.7 kmh SW 3.5 mph5.6 kmh 29.46 in997.6 mb - 0.00 in0.0 mm 0.02 in0.5 mm
02:20 AM 52.3°F11.3°C 50.7°F10.4°C 94% 3.5 mph SW5.6 kmh SW 5.8 mph9.3 kmh 29.47 in998.0 mb - 0.01 in0.3 mm 0.02 in0.5 mm
02:10 AM 52.3°F11.3°C 50.6°F10.3°C 94% 2.3 mph SW3.7 kmh SW 3.5 mph5.6 kmh 29.47 in998.0 mb - 0.00 in0.0 mm 0.02 in0.5 mm
02:00 AM 52.2°F11.2°C 50.5°F10.3°C 94% 1.2 mph SW1.9 kmh SW 1.2 mph1.9 kmh 29.48 in998.3 mb - 0.00 in0.0 mm 0.02 in0.5 mm
01:50 AM 52.2°F11.2°C 50.5°F10.3°C 94% Calm Calm 3.5 mph5.6 kmh 29.48 in998.3 mb - 0.00 in0.0 mm 0.02 in0.5 mm
01:40 AM 52.3°F11.3°C 50.3°F10.2°C 93% 1.2 mph SW1.9 kmh SW 3.5 mph5.6 kmh 29.48 in998.3 mb - 0.00 in0.0 mm 0.02 in0.5 mm
01:30 AM 52.2°F11.2°C 50.2°F10.1°C 93% 1.2 mph SW1.9 kmh SW 1.2 mph1.9 kmh 29.49 in998.6 mb - 0.00 in0.0 mm 0.02 in0.5 mm
01:20 AM 52.1°F11.2°C 50.2°F10.1°C 93% Calm Calm 2.3 mph3.7 kmh 29.49 in998.6 mb - 0.00 in0.0 mm 0.02 in0.5 mm
01:10 AM 52.1°F11.2°C 50.1°F10.1°C 93% 2.3 mph SW3.7 kmh SW 4.6 mph7.4 kmh 29.49 in998.6 mb - 0.00 in0.0 mm 0.02 in0.5 mm
01:00 AM 52.1°F11.2°C 49.8°F9.9°C 92% 1.2 mph SW1.9 kmh SW 1.2 mph1.9 kmh 29.50 in999.0 mb - 0.00 in0.0 mm 0.02 in0.5 mm
12:50 AM 52.3°F11.3°C 50.0°F10.0°C 92% 2.3 mph WSW3.7 kmh WSW 3.5 mph5.6 kmh 29.50 in999.0 mb - 0.01 in0.3 mm 0.02 in0.5 mm
12:40 AM 52.6°F11.4°C 50.0°F10.0°C 91% 1.2 mph SSW1.9 kmh SSW 4.6 mph7.4 kmh 29.51 in999.3 mb - 0.01 in0.3 mm 0.01 in0.3 mm
12:30 AM 53.1°F11.7°C 49.9°F9.9°C 89% 4.6 mph SW7.4 kmh SW 9.2 mph14.8 kmh 29.51 in999.3 mb - 0.01 in0.3 mm 0.01 in0.3 mm
12:20 AM 53.7°F12.1°C 49.9°F9.9°C 87% 2.3 mph SW3.7 kmh SW 5.8 mph9.3 kmh 29.51 in999.3 mb - 0.00 in0.0 mm 0.00 in0.0 mm
12:10 AM 54.0°F12.2°C 49.9°F9.9°C 86% 2.3 mph WSW3.7 kmh WSW 3.5 mph5.6 kmh 29.52 in999.7 mb - 0.00 in0.0 mm 0.00 in0.0 mm
12:00 AM 54.1°F12.3°C 49.4°F9.7°C 84% 3.5 mph SW5.6 kmh SW 8.1 mph13.0 kmh 29.52 in999.7 mb - 0.00 in0.0 mm 0.00 in0.0 mm